Capitol Logistics 460


KEWR
Newark Liberty International Airport
Newark, New Jersey, US
KMSP
Minneapolis-St Paul International Airport
Minneapolis, Minnesota, US

Route Details

Aircraft Information
Primary: Boeing 737-800BCF
Backup: Not Available
Route Data
Distance: 913nm
Sched. Duration: 2h 45m
Avg. Duration: 2h 28m (-17m)
Times Flown: 4
Recm'd Route: COATE Q436 RAAKK Q440 SLLAP IDIOM MUSCL3
Planned Altitude: 36,000ft
Origin Wx: KEWR 051451Z 23008KT 10SM BKN014 OVC140 23/20 A2991 RMK AO2 SLP129 T02330200 50001
Dest. Wx: KMSP 051453Z 03009KT 10SM FEW100 23/12 A2991 RMK AO2 SLP122 T02280122 51013
Notes:

Financial History
Total Freight: 70,224lbs
Average Load: 17,556lbs/flt
Fuel Used: 51,815lbs
Avg. Fuel Used: 12,954lbs/flt
Fuel Expense: $63,732
Avg. Fuel Expense: $15,933
Avg. Fuel Cost: $1.23/lbs
Total Gross Income: $93,403
Pilot Pay: $756
Total Expenses: $10,296
Total Revenue: $17,416
Average Revenue: $23,350.80